Time;durP1;ratioP1;P1;durP2;ratioP2;P2;SDS_P1;SDS_P2;PMS_P1;PMS_P2;Temp;Humidity;BMP_temperature;BMP_pressure;BME280_temperature;BME280_humidity;BME280_pressure;Samples;Min_cycle;Max_cycle;Signal;HPM_P1;HPM_P2
2021/07/24 00:01:51;;;;;;;16.42;7.78;;;;;;;;;;5054194;28;20037;-88
2021/07/24 00:04:16;;;;;;;15.98;7.07;;;;;;;;;;5054312;28;20218;-88
2021/07/24 00:06:42;;;;;;;14.27;7.60;;;;;;;;;;5055522;28;20023;-88
2021/07/24 00:09:07;;;;;;;14.57;7.43;;;;;;;;;;5055449;28;20098;-88
2021/07/24 00:11:32;;;;;;;14.23;6.32;;;;;;;;;;5054298;28;20079;-88
2021/07/24 00:13:57;;;;;;;17.83;8.05;;;;;;;;;;5054278;28;20048;-88
2021/07/24 00:16:23;;;;;;;15.75;7.68;;;;;;;;;;5055371;28;20020;-88
2021/07/24 00:18:48;;;;;;;13.15;7.25;;;;;;;;;;5055469;28;20419;-88
2021/07/24 00:21:13;;;;;;;14.60;7.22;;;;;;;;;;5053961;28;20090;-88
2021/07/24 00:23:38;;;;;;;13.48;6.68;;;;;;;;;;5055410;28;20032;-88
2021/07/24 00:26:03;;;;;;;14.82;7.15;;;;;;;;;;5051961;28;20464;-88
2021/07/24 00:28:29;;;;;;;14.88;7.10;;;;;;;;;;5053871;28;20108;-88
2021/07/24 00:30:54;;;;;;;15.88;7.72;;;;;;;;;;5054941;28;20013;-88
2021/07/24 00:33:19;;;;;;;16.52;6.93;;;;;;;;;;5055061;28;20017;-88
2021/07/24 00:35:44;;;;;;;13.48;7.28;;;;;;;;;;5053833;28;20032;-88
2021/07/24 00:38:10;;;;;;;14.65;7.20;;;;;;;;;;5053672;28;20029;-88
2021/07/24 00:40:43;;;;;;;13.73;7.95;;;;;;;;;;5053032;28;20028;-88
2021/07/24 00:43:09;;;;;;;14.38;7.65;;;;;;;;;;5053571;28;20024;-89
2021/07/24 00:45:41;;;;;;;16.10;8.20;;;;;;;;;;5053499;28;20107;-88
2021/07/24 00:48:07;;;;;;;17.65;7.78;;;;;;;;;;5052693;28;20423;-88
2021/07/24 00:50:32;;;;;;;14.88;8.27;;;;;;;;;;5053330;28;20025;-88
2021/07/24 00:53:10;;;;;;;15.77;7.70;;;;;;;;;;5054567;28;20467;-88
2021/07/24 00:55:35;;;;;;;17.75;7.93;;;;;;;;;;5054242;28;20013;-88
2021/07/24 00:58:20;;;;;;;17.83;8.07;;;;;;;;;;5053086;28;20055;-88
2021/07/24 01:00:45;;;;;;;14.38;7.93;;;;;;;;;;5054112;28;20079;-88
2021/07/24 01:03:10;;;;;;;12.82;7.50;;;;;;;;;;5052863;28;20507;-88
2021/07/24 01:05:36;;;;;;;12.52;6.97;;;;;;;;;;5052771;28;20058;-88
2021/07/24 01:08:01;;;;;;;17.38;8.27;;;;;;;;;;5052829;28;20027;-88
2021/07/24 01:10:26;;;;;;;14.63;8.10;;;;;;;;;;5052505;28;20460;-88
2021/07/24 01:12:51;;;;;;;14.40;7.88;;;;;;;;;;5052869;28;20029;-88
2021/07/24 01:15:16;;;;;;;15.68;7.47;;;;;;;;;;5052968;28;20017;-88
2021/07/24 01:17:41;;;;;;;16.73;8.45;;;;;;;;;;5052768;28;20025;-88
2021/07/24 01:20:10;;;;;;;14.40;7.43;;;;;;;;;;5052746;28;20025;-88
2021/07/24 01:22:35;;;;;;;17.50;8.02;;;;;;;;;;5053977;28;20029;-88
2021/07/24 01:25:00;;;;;;;12.35;6.88;;;;;;;;;;5052779;28;20028;-88
2021/07/24 01:27:25;;;;;;;15.93;7.30;;;;;;;;;;5052758;28;20031;-88
2021/07/24 01:29:50;;;;;;;12.65;7.47;;;;;;;;;;5053665;28;20476;-88
2021/07/24 01:32:16;;;;;;;16.30;7.03;;;;;;;;;;5052674;28;20021;-88
2021/07/24 01:34:43;;;;;;;12.60;7.07;;;;;;;;;;5053838;28;20073;-88
2021/07/24 01:37:08;;;;;;;14.85;7.25;;;;;;;;;;5053925;28;20021;-88
2021/07/24 01:39:34;;;;;;;12.75;6.63;;;;;;;;;;5053774;28;20028;-87
2021/07/24 01:41:59;;;;;;;10.98;6.95;;;;;;;;;;5053856;28;20484;-88
2021/07/24 01:44:25;;;;;;;13.15;6.95;;;;;;;;;;5040306;28;20122;-88
2021/07/24 01:46:50;;;;;;;12.27;6.95;;;;;;;;;;5051486;28;20473;-88
2021/07/24 01:55:00;;;;;;;13.88;7.32;;;;;;;;;;5053625;28;20036;-88
2021/07/24 01:57:27;;;;;;;14.25;7.95;;;;;;;;;;5051108;28;20032;-88
2021/07/24 01:59:54;;;;;;;12.65;7.05;;;;;;;;;;5051889;28;20024;-88
2021/07/24 02:02:20;;;;;;;12.23;7.00;;;;;;;;;;5053416;28;20464;-88
2021/07/24 02:04:49;;;;;;;14.95;6.82;;;;;;;;;;5053002;28;20028;-88
2021/07/24 02:07:14;;;;;;;15.00;7.93;;;;;;;;;;5053024;28;20483;-88
2021/07/24 02:09:40;;;;;;;19.02;8.85;;;;;;;;;;5045119;28;20017;-88
2021/07/24 02:12:05;;;;;;;13.30;7.72;;;;;;;;;;5044408;28;20025;-88
2021/07/24 02:14:34;;;;;;;13.07;7.70;;;;;;;;;;5051721;28;20083;-88
2021/07/24 02:17:02;;;;;;;15.50;8.15;;;;;;;;;;5052872;28;20029;-88
2021/07/24 02:19:31;;;;;;;14.30;7.88;;;;;;;;;;5052924;28;20021;-88
2021/07/24 02:21:56;;;;;;;20.40;8.27;;;;;;;;;;5053005;28;20021;-88
2021/07/24 02:24:22;;;;;;;15.40;8.15;;;;;;;;;;5051516;28;20111;-88
2021/07/24 02:26:47;;;;;;;17.02;8.43;;;;;;;;;;5052887;28;20479;-88
2021/07/24 02:29:12;;;;;;;15.82;8.57;;;;;;;;;;5051781;28;20103;-88
2021/07/24 02:31:37;;;;;;;17.08;8.25;;;;;;;;;;5051337;28;20444;-88
2021/07/24 02:34:03;;;;;;;16.23;8.35;;;;;;;;;;5051637;28;20472;-88
2021/07/24 02:36:28;;;;;;;15.63;8.23;;;;;;;;;;5051397;28;20360;-88
2021/07/24 02:38:53;;;;;;;19.15;8.35;;;;;;;;;;5051228;28;20029;-88
2021/07/24 02:41:18;;;;;;;19.27;8.90;;;;;;;;;;5052680;28;20062;-88
2021/07/24 02:43:43;;;;;;;17.48;9.38;;;;;;;;;;5052774;28;20027;-88
2021/07/24 02:46:09;;;;;;;18.40;9.13;;;;;;;;;;5052715;28;20108;-88
2021/07/24 02:48:34;;;;;;;15.38;8.30;;;;;;;;;;5052369;28;20027;-88
2021/07/24 02:50:59;;;;;;;14.93;8.77;;;;;;;;;;5052744;28;20013;-88
2021/07/24 02:53:24;;;;;;;15.48;8.48;;;;;;;;;;5051208;28;20017;-88
2021/07/24 02:55:49;;;;;;;19.08;9.20;;;;;;;;;;5051318;28;20499;-88
2021/07/24 02:58:15;;;;;;;18.10;8.93;;;;;;;;;;5052300;28;20063;-88
2021/07/24 03:00:40;;;;;;;20.00;9.18;;;;;;;;;;5051265;28;20051;-88
2021/07/24 03:03:05;;;;;;;16.40;9.18;;;;;;;;;;5052346;28;20056;-89
2021/07/24 03:05:30;;;;;;;16.70;8.80;;;;;;;;;;5055272;28;20024;-88
2021/07/24 03:07:55;;;;;;;17.52;8.93;;;;;;;;;;5055441;28;20043;-88
2021/07/24 03:10:21;;;;;;;16.75;9.13;;;;;;;;;;5055241;28;20021;-87
2021/07/24 03:12:46;;;;;;;22.63;9.43;;;;;;;;;;5055316;28;20457;-88
2021/07/24 03:15:11;;;;;;;16.70;8.23;;;;;;;;;;5055300;28;20021;-88
2021/07/24 03:17:36;;;;;;;20.00;9.27;;;;;;;;;;5055048;28;20032;-88
2021/07/24 03:20:02;;;;;;;17.98;8.80;;;;;;;;;;5056266;28;20421;-88
2021/07/24 03:22:28;;;;;;;20.17;8.80;;;;;;;;;;5054920;28;20036;-88
2021/07/24 03:24:56;;;;;;;19.02;9.07;;;;;;;;;;5055038;28;20025;-88
2021/07/24 03:27:22;;;;;;;17.15;8.38;;;;;;;;;;5054686;28;20028;-87
2021/07/24 03:29:47;;;;;;;15.30;8.40;;;;;;;;;;5054996;28;20075;-88
2021/07/24 03:32:12;;;;;;;19.67;9.75;;;;;;;;;;5055003;28;20028;-89
2021/07/24 03:34:37;;;;;;;15.10;8.07;;;;;;;;;;5054843;28;20493;-88
2021/07/24 03:37:02;;;;;;;13.88;8.23;;;;;;;;;;5054834;28;20025;-88
2021/07/24 03:39:28;;;;;;;15.50;7.38;;;;;;;;;;5054603;28;20085;-89
2021/07/24 03:41:53;;;;;;;15.07;7.60;;;;;;;;;;5054887;28;20032;-89
2021/07/24 03:44:18;;;;;;;21.38;8.75;;;;;;;;;;5054375;28;20025;-88
2021/07/24 03:46:43;;;;;;;16.65;8.25;;;;;;;;;;5054139;28;20021;-88
2021/07/24 03:49:08;;;;;;;20.48;9.07;;;;;;;;;;5054208;28;20028;-88
2021/07/24 03:51:34;;;;;;;20.33;9.32;;;;;;;;;;5054249;28;20051;-89
2021/07/24 03:53:59;;;;;;;19.20;9.85;;;;;;;;;;5054711;28;20376;-88
2021/07/24 03:56:24;;;;;;;14.88;8.38;;;;;;;;;;5055480;28;20020;-89
2021/07/24 03:58:51;;;;;;;19.15;9.45;;;;;;;;;;5054700;28;20021;-88
2021/07/24 04:01:16;;;;;;;17.63;8.75;;;;;;;;;;5054452;28;20464;-88
2021/07/24 04:03:41;;;;;;;17.10;8.73;;;;;;;;;;5054022;28;20037;-88
2021/07/24 04:06:08;;;;;;;17.63;8.55;;;;;;;;;;5055235;28;20021;-88
2021/07/24 04:08:34;;;;;;;17.90;9.27;;;;;;;;;;5054054;28;20112;-88
2021/07/24 04:10:59;;;;;;;17.02;8.70;;;;;;;;;;5055215;28;20045;-88
2021/07/24 04:13:24;;;;;;;22.83;9.05;;;;;;;;;;5054085;28;20025;-88
2021/07/24 04:15:50;;;;;;;18.13;9.32;;;;;;;;;;5052175;28;20460;-88
2021/07/24 04:18:15;;;;;;;18.98;9.45;;;;;;;;;;5054071;28;20464;-88
2021/07/24 04:20:41;;;;;;;20.77;10.32;;;;;;;;;;5053965;28;20021;-88
2021/07/24 04:23:06;;;;;;;18.20;9.90;;;;;;;;;;5086741;28;20040;-88
2021/07/24 04:25:31;;;;;;;21.00;9.75;;;;;;;;;;5055375;28;20021;-88
2021/07/24 04:27:56;;;;;;;19.70;9.20;;;;;;;;;;5053871;28;20033;-88
2021/07/24 04:30:22;;;;;;;19.50;9.50;;;;;;;;;;5055332;28;20021;-88
2021/07/24 04:32:47;;;;;;;18.67;9.80;;;;;;;;;;5053785;28;20100;-88
2021/07/24 04:35:12;;;;;;;19.42;10.15;;;;;;;;;;5053571;28;20075;-88
2021/07/24 04:37:37;;;;;;;17.65;9.50;;;;;;;;;;5053495;28;20445;-88
2021/07/24 04:40:03;;;;;;;21.63;9.85;;;;;;;;;;5053767;28;20028;-88
2021/07/24 04:42:28;;;;;;;21.70;10.40;;;;;;;;;;5053625;28;20445;-88
2021/07/24 04:44:54;;;;;;;20.13;10.75;;;;;;;;;;5053516;28;20464;-88
2021/07/24 04:47:19;;;;;;;25.67;11.88;;;;;;;;;;5053137;28;20028;-88
2021/07/24 04:49:53;;;;;;;24.60;11.60;;;;;;;;;;5054743;28;20051;-88
2021/07/24 04:52:20;;;;;;;21.80;11.07;;;;;;;;;;5087231;28;20021;-88
2021/07/24 04:54:46;;;;;;;27.27;11.93;;;;;;;;;;5053277;28;20111;-88
2021/07/24 04:57:11;;;;;;;20.38;10.82;;;;;;;;;;5053479;28;20056;-88
2021/07/24 04:59:37;;;;;;;25.88;10.75;;;;;;;;;;5054628;28;20078;-88
2021/07/24 05:02:03;;;;;;;22.75;11.45;;;;;;;;;;5054316;28;20032;-88
2021/07/24 05:04:28;;;;;;;22.95;11.07;;;;;;;;;;5053091;28;20541;-88
2021/07/24 05:06:55;;;;;;;22.00;10.60;;;;;;;;;;5086605;28;20119;-88
2021/07/24 05:09:20;;;;;;;19.45;9.73;;;;;;;;;;5086491;28;20021;-88
2021/07/24 05:11:45;;;;;;;20.58;9.73;;;;;;;;;;5053063;28;20032;-88
2021/07/24 05:14:10;;;;;;;22.23;10.95;;;;;;;;;;5052892;28;20009;-88
2021/07/24 05:16:35;;;;;;;20.67;10.23;;;;;;;;;;5086614;28;20438;-88
2021/07/24 05:19:01;;;;;;;20.70;10.40;;;;;;;;;;5052817;28;20029;-88
2021/07/24 05:21:26;;;;;;;21.27;10.93;;;;;;;;;;5086582;28;20111;-88
2021/07/24 05:23:51;;;;;;;29.48;13.10;;;;;;;;;;5053060;28;20029;-88
2021/07/24 05:26:17;;;;;;;31.88;13.63;;;;;;;;;;5052423;28;20021;-88
2021/07/24 05:28:43;;;;;;;29.23;14.77;;;;;;;;;;5053981;28;20469;-88
2021/07/24 05:31:18;;;;;;;28.20;15.68;;;;;;;;;;5084324;28;20108;-88
2021/07/24 05:33:43;;;;;;;31.83;15.52;;;;;;;;;;5053992;28;20083;-88
2021/07/24 05:36:08;;;;;;;25.48;12.25;;;;;;;;;;5086085;28;20029;-88
2021/07/24 05:38:34;;;;;;;26.50;13.05;;;;;;;;;;5052557;28;20024;-89
2021/07/24 05:41:02;;;;;;;26.15;14.45;;;;;;;;;;5086084;28;20177;-89
2021/07/24 05:43:27;;;;;;;28.45;13.50;;;;;;;;;;5053843;28;20092;-88
2021/07/24 05:45:52;;;;;;;27.95;12.05;;;;;;;;;;5085902;28;20094;-88
2021/07/24 05:48:17;;;;;;;28.33;13.52;;;;;;;;;;5052150;28;20469;-88
2021/07/24 05:50:42;;;;;;;21.83;11.50;;;;;;;;;;5052301;28;20027;-88
2021/07/24 05:53:08;;;;;;;17.77;9.90;;;;;;;;;;5052257;28;20035;-88
2021/07/24 05:55:33;;;;;;;21.90;11.15;;;;;;;;;;5053348;28;20017;-88
2021/07/24 05:57:58;;;;;;;26.05;12.88;;;;;;;;;;5053410;28;20021;-88
2021/07/24 06:00:23;;;;;;;21.75;11.90;;;;;;;;;;5052241;28;20017;-88
2021/07/24 06:02:49;;;;;;;26.55;12.05;;;;;;;;;;5053530;28;20021;-88
2021/07/24 06:05:14;;;;;;;20.65;11.25;;;;;;;;;;5085407;28;20342;-87
2021/07/24 06:07:39;;;;;;;23.42;11.82;;;;;;;;;;5085562;28;20020;-88
2021/07/24 06:10:04;;;;;;;21.20;11.23;;;;;;;;;;5053362;28;20444;-89
2021/07/24 06:12:30;;;;;;;19.55;10.10;;;;;;;;;;5048216;28;20022;-89
2021/07/24 06:14:55;;;;;;;20.60;10.40;;;;;;;;;;5041739;28;20100;-89
2021/07/24 06:17:20;;;;;;;18.05;9.45;;;;;;;;;;5084243;28;20112;-89
2021/07/24 06:19:45;;;;;;;20.55;10.02;;;;;;;;;;5045208;28;20119;-89
2021/07/24 06:22:10;;;;;;;17.20;9.88;;;;;;;;;;5037404;28;20041;-89
2021/07/24 06:24:36;;;;;;;18.83;9.75;;;;;;;;;;5042506;28;20021;-90
2021/07/24 06:27:01;;;;;;;19.42;8.98;;;;;;;;;;5050888;28;20029;-90
2021/07/24 06:29:26;;;;;;;17.88;9.70;;;;;;;;;;5048703;28;20578;-89
2021/07/24 06:31:51;;;;;;;21.40;9.32;;;;;;;;;;5052916;28;20419;-89
2021/07/24 06:34:16;;;;;;;23.65;11.10;;;;;;;;;;5051330;28;20021;-89
2021/07/24 06:36:42;;;;;;;17.88;9.52;;;;;;;;;;5052876;28;20021;-89
2021/07/24 06:39:37;;;;;;;20.80;9.80;;;;;;;;;;5049473;28;20035;-89
2021/07/24 06:42:02;;;;;;;19.40;11.07;;;;;;;;;;5049841;28;20043;-89
2021/07/24 06:44:27;;;;;;;24.33;12.13;;;;;;;;;;5042278;28;20520;-89
2021/07/24 06:46:53;;;;;;;24.25;11.07;;;;;;;;;;5051344;28;20108;-89
2021/07/24 06:49:19;;;;;;;26.05;12.30;;;;;;;;;;5052633;28;20024;-89
2021/07/24 06:51:44;;;;;;;20.73;11.25;;;;;;;;;;5048697;28;20023;-89
2021/07/24 06:54:10;;;;;;;21.38;11.38;;;;;;;;;;5051089;28;20024;-89
2021/07/24 06:56:35;;;;;;;24.33;13.55;;;;;;;;;;5052279;28;20040;-89
2021/07/24 06:59:00;;;;;;;25.10;13.20;;;;;;;;;;5051309;28;20400;-89
2021/07/24 07:01:25;;;;;;;26.83;12.50;;;;;;;;;;5052333;28;20029;-89
2021/07/24 07:03:50;;;;;;;21.77;12.05;;;;;;;;;;5051198;28;20027;-89
2021/07/24 07:06:16;;;;;;;23.40;12.90;;;;;;;;;;5049701;28;20016;-89
2021/07/24 07:08:41;;;;;;;20.73;11.20;;;;;;;;;;5050766;28;20095;-88
2021/07/24 07:11:06;;;;;;;22.67;12.90;;;;;;;;;;5050505;28;20017;-89
2021/07/24 07:13:32;;;;;;;25.80;15.13;;;;;;;;;;5044485;28;20032;-89
2021/07/24 07:15:57;;;;;;;33.65;18.13;;;;;;;;;;5050186;28;20017;-89
2021/07/24 07:18:23;;;;;;;36.63;16.73;;;;;;;;;;5051045;28;20388;-89
2021/07/24 07:20:49;;;;;;;33.58;18.23;;;;;;;;;;5084311;28;20017;-89
2021/07/24 07:23:14;;;;;;;37.42;19.73;;;;;;;;;;5079596;28;20029;-89
2021/07/24 07:25:39;;;;;;;33.22;18.08;;;;;;;;;;5050134;28;20020;-88
2021/07/24 07:28:04;;;;;;;33.65;19.00;;;;;;;;;;5052221;28;20467;-89
2021/07/24 07:30:30;;;;;;;35.70;19.30;;;;;;;;;;5084386;28;20154;-89
2021/07/24 07:32:55;;;;;;;31.98;18.27;;;;;;;;;;5046907;28;20469;-89
2021/07/24 07:35:20;;;;;;;34.53;19.33;;;;;;;;;;5044414;28;20009;-89
2021/07/24 07:37:53;;;;;;;39.88;18.55;;;;;;;;;;5050865;28;20028;-89
2021/07/24 07:40:19;;;;;;;35.38;18.08;;;;;;;;;;5052282;28;20051;-89
2021/07/24 07:42:44;;;;;;;37.53;18.10;;;;;;;;;;5050134;28;20013;-89
2021/07/24 07:45:10;;;;;;;33.95;16.90;;;;;;;;;;5050020;28;20460;-89
2021/07/24 07:47:35;;;;;;;33.42;18.75;;;;;;;;;;5051132;28;20021;-89
2021/07/24 07:50:00;;;;;;;30.90;16.48;;;;;;;;;;5053201;28;20033;-89
2021/07/24 07:52:27;;;;;;;31.92;16.80;;;;;;;;;;5084172;28;20013;-89
2021/07/24 07:54:52;;;;;;;32.00;16.48;;;;;;;;;;5050786;28;20384;-89
2021/07/24 07:57:18;;;;;;;29.77;15.63;;;;;;;;;;5050316;28;20067;-89
2021/07/24 07:59:43;;;;;;;23.45;12.35;;;;;;;;;;5054999;28;20021;-89
2021/07/24 08:02:08;;;;;;;33.97;16.35;;;;;;;;;;5052089;28;20043;-89
2021/07/24 08:04:33;;;;;;;24.73;12.15;;;;;;;;;;5047207;28;20051;-89
2021/07/24 08:06:59;;;;;;;24.10;11.98;;;;;;;;;;5054890;28;20020;-90
2021/07/24 08:09:24;;;;;;;23.38;11.98;;;;;;;;;;5054018;28;20048;-89
2021/07/24 08:11:50;;;;;;;23.00;11.23;;;;;;;;;;5055651;28;20049;-90
2021/07/24 08:14:15;;;;;;;27.13;12.55;;;;;;;;;;5054061;28;20023;-89
2021/07/24 08:16:42;;;;;;;28.25;13.75;;;;;;;;;;5054008;28;20114;-89
2021/07/24 08:19:07;;;;;;;25.98;12.63;;;;;;;;;;5054474;28;20131;-89
2021/07/24 08:21:32;;;;;;;23.65;11.00;;;;;;;;;;5087750;28;20120;-90
2021/07/24 08:23:57;;;;;;;23.38;12.45;;;;;;;;;;5053955;28;20021;-89
2021/07/24 08:26:23;;;;;;;23.88;11.77;;;;;;;;;;5054091;28;20108;-90
2021/07/24 08:28:48;;;;;;;25.52;11.88;;;;;;;;;;5087642;28;20471;-89
2021/07/24 08:31:13;;;;;;;22.70;11.35;;;;;;;;;;5055110;28;20146;-89
2021/07/24 08:33:39;;;;;;;25.38;11.95;;;;;;;;;;5054110;28;20013;-90
2021/07/24 08:36:04;;;;;;;27.02;12.40;;;;;;;;;;5054993;28;20087;-89
2021/07/24 08:38:29;;;;;;;22.17;11.70;;;;;;;;;;5054967;28;20365;-90
2021/07/24 08:40:54;;;;;;;20.45;10.88;;;;;;;;;;5053749;28;20017;-89
2021/07/24 08:43:21;;;;;;;32.15;13.80;;;;;;;;;;5060566;28;20012;-90
2021/07/24 08:45:46;;;;;;;25.83;11.70;;;;;;;;;;5063065;28;20412;-90
2021/07/24 08:48:11;;;;;;;21.42;11.27;;;;;;;;;;5054648;28;20032;-90
2021/07/24 08:50:39;;;;;;;22.02;12.35;;;;;;;;;;5053592;28;20039;-90
2021/07/24 08:53:05;;;;;;;23.52;11.80;;;;;;;;;;5086956;28;20377;-89
2021/07/24 08:55:31;;;;;;;22.05;11.82;;;;;;;;;;5087121;28;20034;-89
2021/07/24 08:57:57;;;;;;;21.42;12.02;;;;;;;;;;5087074;28;20033;-89
2021/07/24 09:00:24;;;;;;;19.65;11.35;;;;;;;;;;5053235;28;20356;-89
2021/07/24 09:02:51;;;;;;;18.55;10.88;;;;;;;;;;5086797;28;20059;-89
2021/07/24 09:05:16;;;;;;;21.63;10.75;;;;;;;;;;5053001;28;20028;-90
2021/07/24 09:07:43;;;;;;;21.42;11.82;;;;;;;;;;5086285;28;20553;-89
2021/07/24 09:10:08;;;;;;;22.70;11.77;;;;;;;;;;5052375;28;20021;-89
2021/07/24 09:12:36;;;;;;;23.65;11.85;;;;;;;;;;5052117;28;20024;-90
2021/07/24 09:15:02;;;;;;;18.05;10.52;;;;;;;;;;5053488;28;20021;-89
2021/07/24 09:17:27;;;;;;;20.88;11.00;;;;;;;;;;5085674;28;20102;-90
2021/07/24 09:19:53;;;;;;;20.77;11.55;;;;;;;;;;5085436;28;20598;-89
2021/07/24 09:22:25;;;;;;;23.83;11.27;;;;;;;;;;5052970;28;20483;-90
2021/07/24 09:25:07;;;;;;;17.38;10.38;;;;;;;;;;5085189;28;20024;-89
2021/07/24 09:27:33;;;;;;;18.25;10.50;;;;;;;;;;5085359;28;20020;-89
2021/07/24 09:29:58;;;;;;;22.10;12.32;;;;;;;;;;5058219;28;20594;-89
2021/07/24 09:32:23;;;;;;;25.25;10.70;;;;;;;;;;5057241;28;20032;-90
2021/07/24 09:34:49;;;;;;;19.75;10.60;;;;;;;;;;5053096;28;20025;-89
2021/07/24 09:37:27;;;;;;;24.35;11.57;;;;;;;;;;5052018;28;20498;-89
2021/07/24 09:40:12;;;;;;;19.20;10.88;;;;;;;;;;5074348;28;20039;-89
2021/07/24 09:42:38;;;;;;;20.17;10.25;;;;;;;;;;5039190;28;20080;-90
2021/07/24 09:45:03;;;;;;;19.27;11.57;;;;;;;;;;5051804;28;20099;-90
2021/07/24 09:47:29;;;;;;;23.15;12.07;;;;;;;;;;5056796;28;20127;-90
2021/07/24 09:50:07;;;;;;;18.80;11.45;;;;;;;;;;5054509;28;20563;-89
2021/07/24 09:52:43;;;;;;;26.27;12.15;;;;;;;;;;5085735;28;20025;-89
2021/07/24 09:55:15;;;;;;;22.45;12.65;;;;;;;;;;5052589;28;20025;-89
2021/07/24 09:57:40;;;;;;;22.40;12.02;;;;;;;;;;5086059;28;20471;-89
2021/07/24 10:00:22;;;;;;;22.75;12.02;;;;;;;;;;5085709;28;20063;-89
2021/07/24 10:02:47;;;;;;;21.88;13.43;;;;;;;;;;5052316;28;20545;-90
2021/07/24 10:05:13;;;;;;;23.88;11.38;;;;;;;;;;5052702;28;20092;-89
2021/07/24 10:07:42;;;;;;;25.15;13.05;;;;;;;;;;5082811;28;20013;-90
2021/07/24 10:10:07;;;;;;;25.23;12.25;;;;;;;;;;5053388;28;20040;-90
2021/07/24 10:12:32;;;;;;;23.65;13.60;;;;;;;;;;5052560;28;20480;-89
2021/07/24 10:14:59;;;;;;;26.48;12.85;;;;;;;;;;5053163;28;20017;-89
2021/07/24 10:17:25;;;;;;;18.27;11.75;;;;;;;;;;5072349;28;20036;-89
2021/07/24 10:19:51;;;;;;;24.30;12.95;;;;;;;;;;5082652;28;20384;-89
2021/07/24 10:22:18;;;;;;;22.13;12.30;;;;;;;;;;5050931;28;20032;-89
2021/07/24 10:24:43;;;;;;;24.35;13.27;;;;;;;;;;5046480;28;20021;-89
2021/07/24 10:27:13;;;;;;;20.95;12.05;;;;;;;;;;5049208;28;20440;-89
2021/07/24 10:29:38;;;;;;;22.05;12.48;;;;;;;;;;5053481;28;20440;-90
2021/07/24 10:32:07;;;;;;;24.70;12.15;;;;;;;;;;5085681;28;20017;-90
2021/07/24 10:34:33;;;;;;;23.20;12.98;;;;;;;;;;5081711;28;20136;-89
2021/07/24 10:36:58;;;;;;;24.55;12.40;;;;;;;;;;5046980;28;20388;-89
2021/07/24 10:39:23;;;;;;;23.88;13.30;;;;;;;;;;5052981;28;20078;-90
2021/07/24 10:41:49;;;;;;;21.08;13.07;;;;;;;;;;5052850;28;20028;-89
2021/07/24 10:44:16;;;;;;;25.30;12.93;;;;;;;;;;5085023;28;20070;-89
2021/07/24 10:46:41;;;;;;;24.10;13.45;;;;;;;;;;5045948;28;20475;-89
2021/07/24 10:49:22;;;;;;;22.45;12.40;;;;;;;;;;5052687;28;20029;-89
2021/07/24 10:51:54;;;;;;;25.02;13.10;;;;;;;;;;5052019;28;20074;-89
2021/07/24 10:54:19;;;;;;;22.83;12.57;;;;;;;;;;5050499;28;20051;-89
2021/07/24 10:56:45;;;;;;;25.90;12.45;;;;;;;;;;5052222;28;20049;-89
2021/07/24 10:59:13;;;;;;;25.17;13.70;;;;;;;;;;5085340;28;20115;-89
2021/07/24 11:01:48;;;;;;;25.77;14.50;;;;;;;;;;5066705;28;20017;-90
2021/07/24 11:04:32;;;;;;;31.23;12.90;;;;;;;;;;5053047;28;20495;-89
2021/07/24 11:07:12;;;;;;;23.50;13.93;;;;;;;;;;5050689;28;20535;-89
2021/07/24 11:09:38;;;;;;;20.42;12.25;;;;;;;;;;5085477;28;20016;-89
2021/07/24 11:12:09;;;;;;;25.42;14.30;;;;;;;;;;5084004;28;20021;-89
2021/07/24 11:14:34;;;;;;;22.08;13.07;;;;;;;;;;5051210;28;20384;-89
2021/07/24 11:17:06;;;;;;;24.98;13.48;;;;;;;;;;5051315;28;20036;-89
2021/07/24 11:19:54;;;;;;;33.25;14.60;;;;;;;;;;5052814;28;20534;-89
2021/07/24 11:22:20;;;;;;;25.85;14.95;;;;;;;;;;5051108;28;20035;-89
2021/07/24 11:24:51;;;;;;;25.20;14.50;;;;;;;;;;5087150;28;20051;-89
2021/07/24 11:27:19;;;;;;;29.85;14.02;;;;;;;;;;5055380;28;20369;-89
2021/07/24 11:29:45;;;;;;;27.60;14.85;;;;;;;;;;5043774;28;20043;-90
2021/07/24 11:32:10;;;;;;;35.53;15.75;;;;;;;;;;5045059;28;20381;-89
2021/07/24 11:34:35;;;;;;;24.77;14.77;;;;;;;;;;5053143;28;20008;-89
2021/07/24 11:37:01;;;;;;;31.65;14.52;;;;;;;;;;5056111;28;20049;-89
2021/07/24 11:39:28;;;;;;;33.33;15.60;;;;;;;;;;5054679;28;20028;-89
2021/07/24 11:41:53;;;;;;;27.92;14.30;;;;;;;;;;5056465;28;20031;-89
2021/07/24 11:44:25;;;;;;;27.67;15.23;;;;;;;;;;5054839;28;20108;-89
2021/07/24 11:46:57;;;;;;;31.23;15.00;;;;;;;;;;5050203;28;20143;-89
2021/07/24 11:49:22;;;;;;;;;;;;;;;;;;5049607;28;20032;-89
2021/07/24 11:51:47;;;;;;;25.85;13.68;;;;;;;;;;5053915;28;19909;-90
2021/07/24 11:54:12;;;;;;;26.17;12.75;;;;;;;;;;5053167;28;20269;-90
2021/07/24 11:56:37;;;;;;;27.25;12.07;;;;;;;;;;5050522;28;20100;-90
2021/07/24 11:59:03;;;;;;;21.92;11.80;;;;;;;;;;5054852;28;20021;-90
2021/07/24 12:01:28;;;;;;;27.25;13.43;;;;;;;;;;5054295;28;20795;-89
2021/07/24 12:04:03;;;;;;;26.35;11.70;;;;;;;;;;5055848;28;20025;-89
2021/07/24 12:06:28;;;;;;;25.23;12.13;;;;;;;;;;5064542;28;20021;-89
2021/07/24 12:08:54;;;;;;;22.63;12.55;;;;;;;;;;5053624;28;20365;-90
2021/07/24 12:11:19;;;;;;;25.48;13.45;;;;;;;;;;5053128;28;20036;-90
2021/07/24 12:13:45;;;;;;;32.53;14.70;;;;;;;;;;5048302;28;20107;-88
2021/07/24 12:16:11;;;;;;;22.95;13.00;;;;;;;;;;5087740;28;20078;-89
2021/07/24 12:18:37;;;;;;;28.85;13.73;;;;;;;;;;5084080;28;20018;-89
2021/07/24 12:21:15;;;;;;;28.25;15.25;;;;;;;;;;5052856;28;20104;-89
2021/07/24 12:23:51;;;;;;;25.42;13.65;;;;;;;;;;5083145;28;20119;-89
2021/07/24 12:26:22;;;;;;;27.73;13.93;;;;;;;;;;5051759;28;20029;-89
2021/07/24 12:28:47;;;;;;;22.75;12.25;;;;;;;;;;5053948;28;20013;-89
2021/07/24 12:31:15;;;;;;;28.10;13.57;;;;;;;;;;5095131;28;20441;-89
2021/07/24 12:33:51;;;;;;;28.65;14.23;;;;;;;;;;5062648;28;20377;-89
2021/07/24 12:36:16;;;;;;;24.02;12.45;;;;;;;;;;5054664;28;20036;-89
2021/07/24 12:38:42;;;;;;;29.05;13.70;;;;;;;;;;5054033;28;20016;-91
2021/07/24 12:41:07;;;;;;;23.23;12.48;;;;;;;;;;5055634;28;20013;-92
2021/07/24 12:43:33;;;;;;;30.42;13.95;;;;;;;;;;5062034;28;20017;-92
2021/07/24 12:46:11;;;;;;;26.85;12.73;;;;;;;;;;5060944;28;20017;-92
2021/07/24 12:48:40;;;;;;;21.92;11.65;;;;;;;;;;5046722;28;20407;-92
2021/07/24 12:51:16;;;;;;;21.45;11.60;;;;;;;;;;5054395;28;20020;-92
2021/07/24 12:53:44;;;;;;;25.88;14.02;;;;;;;;;;5041691;28;20453;-92
2021/07/24 12:56:09;;;;;;;25.70;11.73;;;;;;;;;;5054410;28;20029;-92
2021/07/24 12:58:35;;;;;;;20.10;12.32;;;;;;;;;;5054312;28;20180;-92
2021/07/24 13:01:10;;;;;;;32.97;13.50;;;;;;;;;;5054456;28;20021;-92
2021/07/24 13:03:36;;;;;;;23.35;12.07;;;;;;;;;;5087727;28;20021;-91
2021/07/24 13:06:01;;;;;;;23.63;12.73;;;;;;;;;;5054386;28;20053;-90
2021/07/24 13:08:28;;;;;;;24.17;13.57;;;;;;;;;;5054436;28;20021;-90
2021/07/24 13:10:53;;;;;;;23.02;12.80;;;;;;;;;;5054032;28;20017;-91
2021/07/24 13:13:18;;;;;;;21.25;12.60;;;;;;;;;;5054193;28;20468;-91
2021/07/24 13:15:43;;;;;;;23.77;11.77;;;;;;;;;;5053414;28;20013;-90
2021/07/24 13:18:08;;;;;;;21.33;11.45;;;;;;;;;;5050581;28;20022;-91
2021/07/24 13:20:34;;;;;;;20.67;12.15;;;;;;;;;;5047789;28;20048;-91
2021/07/24 13:22:59;;;;;;;23.17;12.20;;;;;;;;;;5087233;28;20056;-91
2021/07/24 13:28:14;;;;;;;25.17;12.32;;;;;;;;;;5054749;28;20120;-90
2021/07/24 13:30:40;;;;;;;21.48;12.82;;;;;;;;;;5087050;28;20448;-92
2021/07/24 13:33:05;;;;;;;21.63;12.00;;;;;;;;;;5053388;28;20047;-91
2021/07/24 13:35:30;;;;;;;21.15;13.07;;;;;;;;;;5053417;28;20037;-91
2021/07/24 13:37:55;;;;;;;26.10;12.80;;;;;;;;;;5053082;28;20486;-90
2021/07/24 13:40:21;;;;;;;24.17;12.98;;;;;;;;;;5053336;28;20108;-91
2021/07/24 13:42:46;;;;;;;25.13;12.95;;;;;;;;;;5081365;28;20024;-91
2021/07/24 13:45:12;;;;;;;21.35;11.93;;;;;;;;;;5053387;28;20036;-91
2021/07/24 13:47:37;;;;;;;23.90;12.98;;;;;;;;;;5053053;28;20032;-91
2021/07/24 13:50:05;;;;;;;25.13;13.40;;;;;;;;;;5053467;28;20476;-91
2021/07/24 13:52:30;;;;;;;24.85;13.38;;;;;;;;;;5053187;28;20025;-91
2021/07/24 13:54:55;;;;;;;22.75;12.40;;;;;;;;;;5052647;28;20017;-92
2021/07/24 13:57:21;;;;;;;20.83;11.52;;;;;;;;;;5053236;28;20033;-91
2021/07/24 13:59:46;;;;;;;22.08;11.50;;;;;;;;;;5053064;28;20057;-92
2021/07/24 14:02:12;;;;;;;24.23;12.82;;;;;;;;;;5080906;28;20060;-92
2021/07/24 14:04:38;;;;;;;23.30;13.43;;;;;;;;;;5047334;28;20021;-92
2021/07/24 14:07:03;;;;;;;23.73;12.13;;;;;;;;;;5052827;28;20031;-92
2021/07/24 14:09:29;;;;;;;20.85;12.80;;;;;;;;;;5053183;28;20012;-91
2021/07/24 14:11:54;;;;;;;28.73;14.05;;;;;;;;;;5053034;28;20521;-91
2021/07/24 14:14:19;;;;;;;24.70;14.25;;;;;;;;;;5052895;28;20038;-91
2021/07/24 14:16:44;;;;;;;29.05;15.88;;;;;;;;;;5052954;28;20025;-91
2021/07/24 14:19:10;;;;;;;28.30;13.93;;;;;;;;;;5052762;28;20020;-92
2021/07/24 14:21:35;;;;;;;25.45;12.27;;;;;;;;;;5048179;28;20025;-91
2021/07/24 14:24:01;;;;;;;25.40;12.93;;;;;;;;;;5048974;28;20489;-92
2021/07/24 14:26:26;;;;;;;24.77;13.25;;;;;;;;;;5053292;28;20025;-91